Time;durP1;ratioP1;P1;durP2;ratioP2;P2;SDS_P1;SDS_P2;PMS_P1;PMS_P2;Temp;Humidity;BMP_temperature;BMP_pressure;BME280_temperature;BME280_humidity;BME280_pressure;Samples;Min_cycle;Max_cycle;Signal;HPM_P1;HPM_P2
2022/01/07 00:00:59;;;;;;;15.48;5.68;;;;;;;2.42;82.91;101370.81;4982898;28;20143;-77
2022/01/07 00:03:25;;;;;;;10.45;4.65;;;;;;;2.43;83.37;101372.59;4988491;28;20386;-76
2022/01/07 00:05:50;;;;;;;11.95;5.25;;;;;;;2.46;82.99;101361.75;4984795;28;20033;-74
2022/01/07 00:08:16;;;;;;;11.43;5.50;;;;;;;2.47;83.33;101357.25;4989350;28;20023;-74
2022/01/07 00:10:42;;;;;;;9.05;4.90;;;;;;;2.48;83.46;101354.53;4985799;28;20030;-77
2022/01/07 00:13:07;;;;;;;15.63;5.60;;;;;;;2.45;83.22;101341.19;4987492;28;20034;-76
2022/01/07 00:15:32;;;;;;;14.68;5.30;;;;;;;2.46;82.98;101342.94;4985059;28;20391;-74
2022/01/07 00:17:58;;;;;;;11.35;5.22;;;;;;;2.45;83.35;101338.50;4975767;28;20813;-75
2022/01/07 00:20:24;;;;;;;12.98;4.68;;;;;;;2.44;83.62;101333.19;4979133;28;20387;-76
2022/01/07 00:22:50;;;;;;;12.38;4.95;;;;;;;2.42;83.37;101325.16;4986515;28;20046;-74
2022/01/07 00:25:16;;;;;;;10.40;4.90;;;;;;;2.38;83.31;101323.53;4986942;28;20030;-76
2022/01/07 00:27:42;;;;;;;14.13;4.68;;;;;;;2.42;83.90;101321.59;4976418;28;20072;-74
2022/01/07 00:30:11;;;;;;;14.52;4.65;;;;;;;2.40;83.56;101320.78;4985923;28;20157;-73
2022/01/07 00:32:36;;;;;;;11.65;5.03;;;;;;;2.36;83.83;101320.00;4983871;28;20395;-77
2022/01/07 00:35:03;;;;;;;12.30;5.53;;;;;;;2.38;83.47;101323.53;4986029;28;20019;-77
2022/01/07 00:37:29;;;;;;;14.10;5.22;;;;;;;2.37;84.24;101315.50;4987908;28;20161;-75
2022/01/07 00:39:54;;;;;;;12.57;4.70;;;;;;;2.37;84.59;101316.38;4986646;28;20125;-75
2022/01/07 00:42:20;;;;;;;9.70;4.03;;;;;;;2.35;84.49;101309.31;4981241;28;20113;-76
2022/01/07 00:44:45;;;;;;;11.05;4.53;;;;;;;2.33;84.67;101298.59;4985810;28;20037;-76
2022/01/07 00:47:11;;;;;;;7.35;4.53;;;;;;;2.28;84.57;101285.34;4987097;28;20442;-78
2022/01/07 00:49:36;;;;;;;14.80;4.80;;;;;;;2.27;85.50;101274.63;4986260;28;20085;-75
2022/01/07 00:52:02;;;;;;;11.35;4.72;;;;;;;2.27;86.04;101275.50;4987905;28;20018;-75
2022/01/07 00:54:28;;;;;;;11.85;4.28;;;;;;;2.23;85.67;101268.47;4987200;28;20044;-78
2022/01/07 00:56:54;;;;;;;9.50;4.22;;;;;;;2.24;85.47;101272.06;4985901;28;20030;-74
2022/01/07 00:59:19;;;;;;;14.82;4.88;;;;;;;2.21;85.85;101258.75;4987312;28;20148;-76
2022/01/07 01:01:45;;;;;;;10.88;5.30;;;;;;;2.24;85.61;101247.91;4981463;28;20037;-77
2022/01/07 01:04:10;;;;;;;14.18;4.47;;;;;;;2.22;84.94;101252.44;4977601;28;20030;-76
2022/01/07 01:06:38;;;;;;;13.10;4.28;;;;;;;2.24;85.32;101253.28;4987294;28;20037;-77
2022/01/07 01:09:04;;;;;;;10.45;3.83;;;;;;;2.26;85.21;101240.69;4982693;28;20031;-75
2022/01/07 01:11:29;;;;;;;16.63;4.78;;;;;;;2.25;85.09;101245.16;4984932;28;20110;-74
2022/01/07 01:13:54;;;;;;;12.43;4.82;;;;;;;2.26;85.30;101241.56;4986548;28;20026;-76
2022/01/07 01:16:20;;;;;;;19.58;5.10;;;;;;;2.26;84.94;101238.88;4987305;28;20073;-76
2022/01/07 01:18:45;;;;;;;9.05;4.13;;;;;;;2.27;84.89;101226.31;4978185;28;20026;-76
2022/01/07 01:21:10;;;;;;;13.98;4.20;;;;;;;2.29;85.08;101233.41;4985172;28;20034;-74
2022/01/07 01:23:36;;;;;;;12.13;4.18;;;;;;;2.28;85.49;101228.97;4975855;28;20036;-77
2022/01/07 01:26:01;;;;;;;9.18;3.85;;;;;;;2.30;84.63;101221.75;4986361;28;20022;-76
2022/01/07 01:28:26;;;;;;;13.07;3.92;;;;;;;2.32;83.79;101219.00;4987598;28;20482;-75
2022/01/07 01:30:51;;;;;;;12.57;4.43;;;;;;;2.34;84.34;101213.59;4975184;28;20034;-76
2022/01/07 01:33:18;;;;;;;12.90;4.80;;;;;;;2.32;84.89;101210.94;4991672;28;20479;-76
2022/01/07 01:35:44;;;;;;;8.38;4.47;;;;;;;2.34;84.53;101213.59;4984800;28;20041;-77
2022/01/07 01:38:09;;;;;;;13.23;3.90;;;;;;;2.32;84.67;101205.56;4991137;28;20026;-76
2022/01/07 01:40:35;;;;;;;12.23;4.03;;;;;;;2.32;84.34;101202.88;4990147;28;20491;-75
2022/01/07 01:43:01;;;;;;;9.95;3.95;;;;;;;2.36;84.38;101211.72;4981258;28;20030;-74
2022/01/07 01:45:27;;;;;;;8.20;3.88;;;;;;;2.36;83.96;101195.63;4990588;28;20034;-76
2022/01/07 01:47:52;;;;;;;11.68;4.07;;;;;;;2.37;83.88;101202.75;4990807;28;20026;-76
2022/01/07 01:50:18;;;;;;;13.60;3.90;;;;;;;2.36;83.53;101185.75;4975944;28;20041;-77
2022/01/07 01:52:48;;;;;;;8.40;3.70;;;;;;;2.39;84.09;101182.97;4990778;28;20165;-77
2022/01/07 01:55:14;;;;;;;9.68;3.78;;;;;;;2.39;83.75;101171.38;4983842;28;20029;-74
2022/01/07 01:57:39;;;;;;;8.98;3.00;;;;;;;2.38;83.71;101169.59;4975044;28;20026;-76
2022/01/07 02:00:06;;;;;;;10.48;3.97;;;;;;;2.37;83.70;101165.16;4984530;28;20499;-75
2022/01/07 02:02:31;;;;;;;9.52;3.10;;;;;;;2.41;83.82;101166.81;4986988;28;20030;-75
2022/01/07 02:04:57;;;;;;;8.77;2.95;;;;;;;2.40;84.03;101165.94;4985677;28;20085;-75
2022/01/07 02:07:25;;;;;;;11.05;3.55;;;;;;;2.43;83.32;101159.59;4988980;28;20550;-76
2022/01/07 02:09:51;;;;;;;6.13;3.15;;;;;;;2.45;83.37;101169.34;4989690;28;20026;-74
2022/01/07 02:12:17;;;;;;;13.43;3.92;;;;;;;2.47;82.66;101159.44;4990545;28;20113;-76
2022/01/07 02:14:53;;;;;;;5.55;3.13;;;;;;;2.49;82.92;101159.38;4987186;28;20117;-77
2022/01/07 02:17:20;;;;;;;8.45;2.80;;;;;;;2.50;82.50;101169.19;4980914;28;20049;-76
2022/01/07 02:19:45;;;;;;;5.47;3.00;;;;;;;2.52;82.85;101161.97;4987661;28;20018;-77
2022/01/07 02:22:12;;;;;;;9.98;3.05;;;;;;;2.51;83.67;101153.00;4990578;28;20088;-75
2022/01/07 02:24:37;;;;;;;9.73;3.42;;;;;;;2.50;83.35;101159.31;4990157;28;20037;-76
2022/01/07 02:27:03;;;;;;;6.35;2.88;;;;;;;2.50;83.34;101151.25;4990494;28;20022;-76
2022/01/07 02:29:29;;;;;;;6.18;2.78;;;;;;;2.51;83.99;101146.75;4986794;28;20067;-73
2022/01/07 02:31:54;;;;;;;6.72;2.92;;;;;;;2.51;83.90;101152.13;4981820;28;20487;-76
2022/01/07 02:34:20;;;;;;;10.55;3.80;;;;;;;2.49;85.12;101154.00;4976532;28;20030;-78
2022/01/07 02:36:45;;;;;;;4.97;2.92;;;;;;;2.43;85.83;101141.69;4979225;28;20030;-76
2022/01/07 02:39:10;;;;;;;5.82;2.28;;;;;;;2.40;86.48;101144.47;4987741;28;20046;-74
2022/01/07 02:41:36;;;;;;;11.48;2.70;;;;;;;2.35;86.99;101145.53;4982073;28;20589;-74
2022/01/07 02:44:01;;;;;;;6.32;2.78;;;;;;;2.27;87.41;101129.69;4988998;28;20022;-74
2022/01/07 02:46:26;;;;;;;8.82;3.28;;;;;;;2.24;88.08;101140.56;4989711;28;20034;-74
2022/01/07 02:48:52;;;;;;;4.32;2.78;;;;;;;2.18;88.39;101135.34;4989870;28;20022;-78
2022/01/07 02:51:17;;;;;;;6.00;2.65;;;;;;;2.19;88.53;101140.69;4981449;28;20109;-74
2022/01/07 02:53:42;;;;;;;7.47;3.13;;;;;;;2.16;88.98;101137.22;4989768;28;20479;-77
2022/01/07 02:56:08;;;;;;;11.52;3.35;;;;;;;2.14;89.07;101133.69;4989321;28;20023;-75
2022/01/07 02:58:33;;;;;;;10.73;3.33;;;;;;;2.13;89.34;101134.63;4983107;28;20026;-75
2022/01/07 03:00:58;;;;;;;9.15;4.30;;;;;;;2.09;89.98;101128.50;4982778;28;20018;-75
2022/01/07 03:03:24;;;;;;;8.45;3.83;;;;;;;2.06;89.60;101123.25;4988179;28;20101;-73
2022/01/07 03:05:49;;;;;;;9.80;3.33;;;;;;;2.03;90.27;101121.53;4977833;28;20026;-74
2022/01/07 03:08:14;;;;;;;8.00;3.17;;;;;;;1.98;90.32;101111.88;4988998;28;20034;-77
2022/01/07 03:10:40;;;;;;;7.50;3.22;;;;;;;1.99;90.17;101106.44;4987486;28;20030;-75
2022/01/07 03:13:05;;;;;;;5.60;2.80;;;;;;;1.97;90.62;101108.31;4982825;28;20495;-76
2022/01/07 03:15:34;;;;;;;6.25;3.65;;;;;;;1.91;90.89;101097.78;4983950;28;20053;-77
2022/01/07 03:18:00;;;;;;;9.80;3.17;;;;;;;1.90;91.04;101104.06;4983836;28;20051;-74
2022/01/07 03:20:25;;;;;;;6.82;3.63;;;;;;;1.87;91.03;101097.94;4971008;28;20058;-77
2022/01/07 03:22:51;;;;;;;7.45;3.50;;;;;;;1.84;91.44;101100.72;4986175;28;20057;-78
2022/01/07 03:25:17;;;;;;;8.32;3.65;;;;;;;1.83;91.55;101096.28;4988730;28;20034;-77
2022/01/07 03:27:43;;;;;;;4.85;3.30;;;;;;;1.79;91.73;101087.47;4977363;28;20487;-74
2022/01/07 03:30:11;;;;;;;11.25;3.97;;;;;;;1.75;91.92;101099.22;4980122;28;20065;-76
2022/01/07 03:32:37;;;;;;;10.80;3.38;;;;;;;1.72;92.18;101091.25;4987486;28;20030;-75
2022/01/07 03:35:04;;;;;;;5.38;3.85;;;;;;;1.72;92.27;101089.44;4986332;28;20581;-76
2022/01/07 03:37:29;;;;;;;12.00;3.60;;;;;;;1.71;92.17;101089.50;4988811;28;20030;-77
2022/01/07 03:39:54;;;;;;;12.80;3.95;;;;;;;1.69;92.46;101086.00;4988880;28;20022;-75
2022/01/07 03:42:20;;;;;;;7.88;3.60;;;;;;;1.69;92.45;101084.19;4988787;28;20022;-76
2022/01/07 03:44:45;;;;;;;12.48;3.65;;;;;;;1.70;92.51;101090.44;4984900;28;20471;-77
2022/01/07 03:47:10;;;;;;;12.57;3.58;;;;;;;1.73;92.68;101090.34;4987572;28;20038;-77
2022/01/07 03:49:36;;;;;;;8.63;3.50;;;;;;;1.73;92.82;101079.63;4985409;28;20687;-77
2022/01/07 03:52:01;;;;;;;11.02;4.40;;;;;;;1.70;92.92;101075.22;4983296;28;20167;-76
2022/01/07 03:54:26;;;;;;;10.20;3.50;;;;;;;1.72;93.16;101070.66;4988989;28;20030;-78
2022/01/07 03:56:52;;;;;;;10.15;4.00;;;;;;;1.70;93.35;101063.63;4988269;28;20493;-77
2022/01/07 03:59:17;;;;;;;8.45;4.03;;;;;;;1.72;93.30;101061.75;4982568;28;20030;-77
2022/01/07 04:01:42;;;;;;;6.47;3.65;;;;;;;1.71;93.06;101060.88;4982202;28;20494;-77
2022/01/07 04:04:08;;;;;;;8.85;3.88;;;;;;;1.69;93.27;101052.00;4983649;28;20038;-76
2022/01/07 04:06:33;;;;;;;6.70;4.13;;;;;;;1.73;93.90;101050.13;4978825;28;20094;-75
2022/01/07 04:08:58;;;;;;;7.35;3.75;;;;;;;1.74;93.72;101050.06;4983677;28;20054;-77
2022/01/07 04:11:24;;;;;;;4.90;3.45;;;;;;;1.74;93.87;101039.31;4978301;28;20502;-77
2022/01/07 04:13:49;;;;;;;9.27;3.97;;;;;;;1.76;94.09;101048.19;4981333;28;20030;-76
2022/01/07 04:16:15;;;;;;;13.90;4.28;;;;;;;1.78;93.72;101043.66;4986440;28;20042;-76
2022/01/07 04:18:40;;;;;;;9.35;3.95;;;;;;;1.76;93.86;101037.47;4988393;28;20025;-74
2022/01/07 04:21:05;;;;;;;12.95;4.40;;;;;;;1.77;93.93;101043.69;4980042;28;20022;-76
2022/01/07 04:23:31;;;;;;;7.05;3.92;;;;;;;1.78;93.82;101046.34;4983279;28;20038;-76
2022/01/07 04:25:57;;;;;;;9.32;3.85;;;;;;;1.81;94.10;101050.72;4981800;28;20023;-76
2022/01/07 04:28:22;;;;;;;7.00;4.05;;;;;;;1.83;94.33;101050.69;4988441;28;20034;-77
2022/01/07 04:30:48;;;;;;;10.20;3.97;;;;;;;1.86;94.14;101048.75;4976855;28;20148;-75
2022/01/07 04:33:20;;;;;;;9.73;4.45;;;;;;;1.88;94.51;101049.59;4972444;28;20066;-75
2022/01/07 04:35:46;;;;;;;6.18;4.47;;;;;;;1.88;94.47;101044.22;4985928;28;20065;-74
2022/01/07 04:38:11;;;;;;;9.68;4.40;;;;;;;1.89;94.48;101045.97;4986530;28;20639;-77
2022/01/07 04:40:36;;;;;;;7.45;4.00;;;;;;;1.93;94.60;101050.31;4981899;28;20037;-76
2022/01/07 04:43:04;;;;;;;13.07;4.63;;;;;;;1.95;94.65;101053.81;4979332;28;20038;-75
2022/01/07 04:45:30;;;;;;;10.73;4.88;;;;;;;1.98;95.32;101042.13;4987965;28;20030;-75
2022/01/07 04:47:55;;;;;;;10.25;4.90;;;;;;;2.00;94.95;101037.56;4986777;28;20889;-75
2022/01/07 04:50:22;;;;;;;12.35;4.70;;;;;;;2.02;94.72;101043.78;4977764;28;20058;-75
2022/01/07 04:52:48;;;;;;;8.68;4.35;;;;;;;2.04;95.03;101034.72;4986762;28;20044;-75
2022/01/07 04:55:16;;;;;;;9.20;5.05;;;;;;;2.06;95.04;101029.31;4981779;28;20033;-75
2022/01/07 04:57:45;;;;;;;12.23;5.03;;;;;;;2.07;94.92;101024.84;4973773;28;20034;-76
2022/01/07 05:00:11;;;;;;;8.93;5.07;;;;;;;2.10;95.11;101025.63;4984089;28;20034;-77
2022/01/07 05:02:37;;;;;;;7.55;5.07;;;;;;;2.11;95.36;101022.00;4976855;28;20035;-75
2022/01/07 05:05:02;;;;;;;7.75;4.78;;;;;;;2.14;95.19;101019.19;4986343;28;20037;-74
2022/01/07 05:07:28;;;;;;;10.77;5.90;;;;;;;2.13;95.33;101011.19;4985375;28;20037;-74
2022/01/07 05:09:53;;;;;;;9.35;5.15;;;;;;;2.17;95.23;101010.16;4985553;28;20029;-74
2022/01/07 05:12:18;;;;;;;10.05;5.57;;;;;;;2.20;95.19;101016.31;4987005;28;20030;-74
2022/01/07 05:14:44;;;;;;;13.75;5.68;;;;;;;2.24;95.08;101017.09;4979768;28;20101;-76
2022/01/07 05:17:09;;;;;;;7.93;5.40;;;;;;;2.25;95.36;101014.34;4983617;28;20054;-75
2022/01/07 05:19:34;;;;;;;6.70;5.13;;;;;;;2.26;95.27;101005.34;4975874;28;20141;-75
2022/01/07 05:21:59;;;;;;;11.18;6.57;;;;;;;2.26;95.35;101001.78;4986095;28;20021;-76
2022/01/07 05:24:25;;;;;;;10.98;5.50;;;;;;;2.30;95.21;101015.03;4986222;28;20064;-75
2022/01/07 05:26:50;;;;;;;9.50;5.68;;;;;;;2.30;95.05;101004.31;4985809;28;20446;-76
2022/01/07 05:29:15;;;;;;;9.82;5.40;;;;;;;2.33;95.05;101005.97;4986565;28;20030;-76
2022/01/07 05:31:41;;;;;;;9.35;6.05;;;;;;;2.37;95.26;100998.69;4984473;28;20778;-76
2022/01/07 05:34:06;;;;;;;13.85;6.00;;;;;;;2.35;95.03;101008.63;4987222;28;20426;-74
2022/01/07 05:36:31;;;;;;;12.25;5.55;;;;;;;2.37;95.32;101006.75;4985445;28;20030;-76
2022/01/07 05:38:57;;;;;;;11.23;5.85;;;;;;;2.41;95.13;101006.59;4985101;28;20027;-75
2022/01/07 05:41:22;;;;;;;10.00;6.57;;;;;;;2.37;94.88;100988.84;4980412;28;20026;-75
2022/01/07 05:43:48;;;;;;;10.02;6.03;;;;;;;2.45;95.10;101000.19;4982581;28;20030;-77
2022/01/07 05:46:15;;;;;;;9.23;5.93;;;;;;;2.46;95.21;100996.56;4980017;28;20031;-76
2022/01/07 05:48:45;;;;;;;12.75;6.10;;;;;;;2.47;95.10;100989.38;4970330;28;20034;-75
2022/01/07 05:51:11;;;;;;;11.70;6.85;;;;;;;2.49;95.30;100993.78;4980655;28;20398;-75
2022/01/07 05:53:36;;;;;;;11.98;7.05;;;;;;;2.52;95.32;100991.00;4986977;28;20039;-76
2022/01/07 05:56:02;;;;;;;12.45;7.50;;;;;;;2.53;95.18;100986.50;4986999;28;20026;-74
2022/01/07 05:58:28;;;;;;;13.85;6.95;;;;;;;2.57;94.96;100992.63;4987054;28;20088;-74
2022/01/07 06:00:54;;;;;;;10.43;6.95;;;;;;;2.57;95.15;100987.25;4975932;28;20101;-76
2022/01/07 06:03:19;;;;;;;12.57;7.00;;;;;;;2.60;94.98;100976.38;4981333;28;20037;-77
2022/01/07 06:05:44;;;;;;;13.90;7.28;;;;;;;2.63;95.07;100995.06;4977274;28;20037;-76
2022/01/07 06:08:09;;;;;;;11.68;6.95;;;;;;;2.62;95.06;100990.66;4987250;28;20054;-76
2022/01/07 06:10:35;;;;;;;13.98;6.78;;;;;;;2.65;95.08;100986.00;4981775;28;20030;-76
2022/01/07 06:13:00;;;;;;;11.70;6.95;;;;;;;2.66;94.89;100984.19;4986187;28;20034;-75
2022/01/07 06:15:26;;;;;;;10.40;6.95;;;;;;;2.68;95.18;100991.28;4987418;28;20113;-76
2022/01/07 06:17:51;;;;;;;12.98;7.03;;;;;;;2.70;95.01;101005.50;4979819;28;20045;-74
2022/01/07 06:20:18;;;;;;;12.55;6.82;;;;;;;2.71;94.76;101004.59;4981667;28;20129;-76
2022/01/07 06:22:44;;;;;;;11.20;7.22;;;;;;;2.73;94.84;101000.03;4989954;28;20360;-74
2022/01/07 06:25:09;;;;;;;14.77;7.13;;;;;;;2.73;94.89;100994.66;4990424;28;20109;-76
2022/01/07 06:27:34;;;;;;;12.55;7.40;;;;;;;2.75;95.02;100998.19;4977065;28;20045;-75
2022/01/07 06:30:00;;;;;;;10.23;6.78;;;;;;;2.76;94.88;100994.56;4989692;28;20023;-74
2022/01/07 06:32:25;;;;;;;10.35;7.03;;;;;;;2.77;94.91;101000.81;4989648;28;20022;-76
2022/01/07 06:34:51;;;;;;;12.60;7.13;;;;;;;2.76;94.94;100997.25;4985536;28;20033;-74
2022/01/07 06:37:17;;;;;;;15.57;6.60;;;;;;;2.80;94.80;100996.19;4986781;28;20364;-74
2022/01/07 06:39:42;;;;;;;12.02;7.55;;;;;;;2.78;94.91;100994.50;4988236;28;20031;-75
2022/01/07 06:42:08;;;;;;;10.95;7.13;;;;;;;2.84;94.68;101004.13;4979532;28;20034;-74
2022/01/07 06:44:34;;;;;;;15.57;7.88;;;;;;;2.85;94.82;101001.41;4976221;28;20085;-74
2022/01/07 06:46:59;;;;;;;13.27;7.22;;;;;;;2.87;94.71;100994.16;4989068;28;20390;-76
2022/01/07 06:49:24;;;;;;;12.65;7.30;;;;;;;2.89;94.70;100999.44;4986061;28;20062;-73
2022/01/07 06:51:51;;;;;;;9.82;7.05;;;;;;;2.91;94.65;101000.28;4983004;28;20429;-76
2022/01/07 06:54:17;;;;;;;12.90;7.32;;;;;;;2.92;94.62;100999.34;4990600;28;20037;-74
2022/01/07 06:56:44;;;;;;;20.67;7.85;;;;;;;2.93;94.63;100995.72;4980348;28;20022;-74
2022/01/07 06:59:12;;;;;;;14.77;7.82;;;;;;;2.93;94.57;100995.72;4986987;28;20029;-75
2022/01/07 07:01:37;;;;;;;13.18;7.82;;;;;;;2.95;94.52;100983.97;4981706;28;20026;-74
2022/01/07 07:04:03;;;;;;;15.27;7.63;;;;;;;2.96;94.78;100992.91;4987862;28;20039;-75
2022/01/07 07:06:28;;;;;;;13.10;7.68;;;;;;;2.97;94.52;100995.53;4978855;28;20487;-74
2022/01/07 07:08:53;;;;;;;16.48;8.05;;;;;;;2.99;94.56;100996.38;4979880;28;20628;-74
2022/01/07 07:11:19;;;;;;;15.77;7.18;;;;;;;3.00;94.56;101008.00;4987758;28;20023;-75
2022/01/07 07:13:44;;;;;;;12.32;7.85;;;;;;;3.00;94.48;100998.13;4988084;28;20481;-74
2022/01/07 07:16:09;;;;;;;21.40;8.60;;;;;;;3.04;94.25;101002.44;4986928;28;20046;-76
2022/01/07 07:18:35;;;;;;;18.60;8.48;;;;;;;3.05;94.29;100993.44;4988634;28;20038;-74
2022/01/07 07:21:00;;;;;;;17.35;8.27;;;;;;;3.08;94.37;101003.19;4983605;28;20026;-75
2022/01/07 07:23:25;;;;;;;13.43;8.63;;;;;;;3.06;94.58;101005.06;4988268;28;20113;-76
2022/01/07 07:25:51;;;;;;;16.95;8.30;;;;;;;3.10;94.07;101000.44;4998134;28;20704;-76
2022/01/07 07:28:17;;;;;;;14.63;7.82;;;;;;;3.11;94.27;100999.50;4989456;28;20049;-74
2022/01/07 07:30:43;;;;;;;19.98;9.02;;;;;;;3.15;94.50;101011.88;4983159;28;20081;-74
2022/01/07 07:38:34;;;;;;;17.08;8.40;;;;;;;3.17;94.37;101000.16;4978579;28;20125;-75
2022/01/07 07:40:59;;;;;;;13.13;7.97;;;;;;;3.19;94.23;101003.66;4987649;28;20551;-75
2022/01/07 07:43:25;;;;;;;16.80;8.40;;;;;;;3.22;94.41;100999.97;4972432;28;20114;-75
2022/01/07 07:45:50;;;;;;;14.65;9.02;;;;;;;3.23;94.10;100991.84;4977552;28;20039;-75
2022/01/07 07:48:15;;;;;;;15.77;8.02;;;;;;;3.24;94.26;100988.22;4979992;28;20144;-74
2022/01/07 07:50:40;;;;;;;14.25;8.02;;;;;;;3.27;94.11;100987.22;4979063;28;20026;-75
2022/01/07 07:53:06;;;;;;;22.77;8.55;;;;;;;3.27;93.95;100996.16;4984919;28;20033;-76
2022/01/07 07:55:31;;;;;;;15.27;9.15;;;;;;;3.30;94.16;100989.75;4982027;28;20451;-76
2022/01/07 07:57:56;;;;;;;12.48;7.10;;;;;;;3.30;94.06;100995.16;4988989;28;20498;-75
2022/01/07 08:00:22;;;;;;;13.88;8.60;;;;;;;3.32;94.14;101004.03;4986495;28;20038;-74
2022/01/07 08:02:47;;;;;;;14.52;8.25;;;;;;;3.36;93.88;101008.38;4980729;28;20023;-75
2022/01/07 08:05:12;;;;;;;17.33;8.75;;;;;;;3.37;94.21;101003.84;4982317;28;20562;-75
2022/01/07 08:07:38;;;;;;;24.10;10.75;;;;;;;3.39;94.06;100999.28;4978612;28;20546;-76
2022/01/07 08:10:04;;;;;;;10.50;7.68;;;;;;;3.42;93.86;101008.09;4983536;28;20088;-74
2022/01/07 08:12:51;;;;;;;19.38;8.50;;;;;;;3.43;93.57;100991.03;4982121;28;20085;-75
2022/01/07 08:17:58;;;;;;;14.18;8.50;;;;;;;3.46;93.70;100981.97;4988445;28;20568;-75
2022/01/07 08:20:24;;;;;;;18.70;8.75;;;;;;;3.45;93.81;100985.56;4975823;28;20042;-75
2022/01/07 08:22:49;;;;;;;12.40;8.15;;;;;;;3.47;93.67;100981.03;4987705;28;20387;-75
2022/01/07 08:25:14;;;;;;;15.40;7.93;;;;;;;3.46;93.78;100980.16;4984062;28;20022;-75
2022/01/07 08:27:39;;;;;;;13.73;8.18;;;;;;;3.46;93.81;100974.78;4976671;28;20036;-76
2022/01/07 08:30:19;;;;;;;17.48;8.48;;;;;;;3.48;93.65;100975.56;4978446;28;20045;-76
2022/01/07 08:35:29;;;;;;;16.27;8.50;;;;;;;3.50;93.77;100978.22;4981207;28;20533;-74
2022/01/07 08:37:54;;;;;;;14.27;8.10;;;;;;;3.51;93.67;100986.22;4987033;28;20030;-75
2022/01/07 08:40:19;;;;;;;10.85;7.72;;;;;;;3.52;93.56;100977.22;4984214;28;20030;-75
2022/01/07 08:42:44;;;;;;;15.73;8.80;;;;;;;3.54;93.57;100971.75;4979374;28;20030;-76
2022/01/07 08:45:10;;;;;;;16.17;8.48;;;;;;;3.59;93.59;100980.53;4979807;28;20026;-76
2022/01/07 08:47:35;;;;;;;17.73;8.05;;;;;;;3.61;93.60;100992.09;4985217;28;20029;-74
2022/01/07 08:50:00;;;;;;;13.82;8.25;;;;;;;3.63;93.55;100982.13;4983318;28;20030;-74
2022/01/07 08:52:26;;;;;;;18.05;7.90;;;;;;;3.67;93.20;100988.25;4979729;28;20030;-77
2022/01/07 08:54:51;;;;;;;16.55;8.07;;;;;;;3.68;93.00;100988.19;4987771;28;20081;-74
2022/01/07 08:57:19;;;;;;;18.52;8.68;;;;;;;3.70;93.46;100991.72;4984332;28;20026;-75
2022/01/07 08:59:44;;;;;;;13.90;8.10;;;;;;;3.71;93.06;100995.28;4981273;28;20049;-76
2022/01/07 09:02:09;;;;;;;14.07;7.95;;;;;;;3.71;93.17;100996.16;4987455;28;20462;-75
2022/01/07 09:04:34;;;;;;;14.90;8.30;;;;;;;3.73;93.23;100999.66;4985270;28;20399;-75
2022/01/07 09:07:00;;;;;;;14.32;8.95;;;;;;;3.73;92.94;100991.59;4980911;28;20038;-75
2022/01/07 09:09:25;;;;;;;17.83;7.15;;;;;;;3.71;93.21;100988.06;4986350;28;20117;-75
2022/01/07 09:11:50;;;;;;;16.60;8.38;;;;;;;3.72;92.88;100988.94;4976093;28;20050;-75
2022/01/07 09:14:16;;;;;;;24.08;8.57;;;;;;;3.75;93.11;100994.22;4982864;28;20057;-76
2022/01/07 09:16:41;;;;;;;14.85;7.32;;;;;;;3.74;92.94;100985.28;4984174;28;20054;-74
2022/01/07 09:19:06;;;;;;;12.75;8.30;;;;;;;3.75;92.69;100981.63;4981195;28;20030;-76
2022/01/07 09:21:32;;;;;;;16.73;7.85;;;;;;;3.76;93.19;100987.88;4970013;28;20035;-75
2022/01/07 09:23:58;;;;;;;13.35;7.43;;;;;;;3.75;92.93;100978.06;4984711;28;20030;-75
2022/01/07 09:26:23;;;;;;;16.08;8.15;;;;;;;3.77;93.07;100986.94;4972338;28;20030;-77
2022/01/07 09:28:49;;;;;;;12.70;7.40;;;;;;;3.80;93.21;100976.94;4983259;28;20033;-76
2022/01/07 09:31:14;;;;;;;16.25;8.68;;;;;;;3.89;93.01;100993.63;4975746;28;20019;-76
2022/01/07 09:33:39;;;;;;;18.40;8.10;;;;;;;3.93;92.81;100989.88;4983912;28;20072;-76
2022/01/07 09:36:05;;;;;;;10.48;7.30;;;;;;;3.96;92.69;100990.59;4974388;28;20018;-75
2022/01/07 09:38:31;;;;;;;16.45;7.32;;;;;;;4.00;92.47;100986.84;4977631;28;20372;-75
2022/01/07 09:40:56;;;;;;;12.73;7.55;;;;;;;4.05;92.42;100978.56;4980598;28;20041;-75
2022/01/07 09:43:22;;;;;;;13.60;7.03;;;;;;;4.08;91.87;100992.78;4970058;28;20031;-74
2022/01/07 09:45:48;;;;;;;15.45;7.00;;;;;;;4.07;92.00;100985.63;4985845;28;20121;-75
2022/01/07 09:48:13;;;;;;;11.80;6.38;;;;;;;4.05;92.31;100975.88;4979735;28;20146;-76
2022/01/07 09:50:39;;;;;;;13.88;8.02;;;;;;;4.07;91.20;100964.09;4982912;28;20033;-75
2022/01/07 09:53:09;;;;;;;16.00;6.50;;;;;;;4.09;91.49;100975.66;4989279;28;20025;-76
2022/01/07 09:55:35;;;;;;;15.50;7.03;;;;;;;4.08;91.77;100975.75;4990702;28;20022;-74
2022/01/07 09:58:02;;;;;;;12.85;6.93;;;;;;;4.08;91.90;100983.81;4990577;28;20421;-75
2022/01/07 10:00:37;;;;;;;14.25;7.60;;;;;;;4.09;91.69;100955.94;4981861;28;20534;-76
2022/01/07 10:03:06;;;;;;;12.57;6.82;;;;;;;4.21;91.53;100966.19;4984667;28;20120;-74
2022/01/07 10:05:32;;;;;;;11.82;7.20;;;;;;;4.25;91.38;100965.13;4986842;28;20046;-76
2022/01/07 10:08:21;;;;;;;13.10;6.32;;;;;;;4.36;91.79;100975.41;4986371;28;20042;-76
2022/01/07 10:10:47;;;;;;;12.10;6.03;;;;;;;4.39;90.61;100966.31;4980464;28;20034;-76
2022/01/07 10:13:18;;;;;;;12.15;6.13;;;;;;;4.41;90.35;100967.13;4985530;28;20374;-75
2022/01/07 10:15:44;;;;;;;9.80;6.47;;;;;;;4.44;90.60;100970.56;4982786;28;20085;-76
2022/01/07 10:18:12;;;;;;;11.55;6.43;;;;;;;4.44;90.25;100957.09;4983059;28;20077;-74
2022/01/07 10:20:44;;;;;;;10.68;5.63;;;;;;;4.46;90.67;100965.97;4982941;28;20123;-76
2022/01/07 10:23:13;;;;;;;;;;;;;;;4.51;91.08;100966.63;4984178;28;20390;-74
2022/01/07 10:25:41;;;;;;;11.05;6.25;;;;;;;4.57;90.48;100969.06;4977693;28;20008;-76
2022/01/07 10:28:08;;;;;;;10.02;5.38;;;;;;;4.63;90.28;100964.34;4980431;28;20034;-76
2022/01/07 10:30:40;;;;;;;9.77;5.50;;;;;;;4.66;90.25;100945.31;4983660;28;20022;-76
2022/01/07 10:33:21;;;;;;;14.05;6.00;;;;;;;4.72;90.53;100954.00;4981726;28;20042;-75
2022/01/07 10:35:49;;;;;;;8.30;5.53;;;;;;;4.80;89.85;100941.06;4988143;28;20035;-76
2022/01/07 10:38:23;;;;;;;12.63;5.45;;;;;;;4.85;89.47;100954.31;4990490;28;20030;-76
2022/01/07 10:40:50;;;;;;;9.55;5.45;;;;;;;4.91;89.58;100951.31;4974540;28;20026;-74
2022/01/07 10:43:25;;;;;;;12.82;5.97;;;;;;;4.96;89.47;100956.50;4975233;28;20038;-75
2022/01/07 10:46:15;;;;;;;15.02;6.07;;;;;;;5.01;88.80;100944.53;4977697;28;20033;-75
2022/01/07 10:48:43;;;;;;;11.10;5.88;;;;;;;5.07;88.58;100943.34;4978879;28;20046;-75
2022/01/07 10:51:11;;;;;;;17.63;5.90;;;;;;;5.12;88.38;100935.91;4983707;28;20038;-73
2022/01/07 10:53:38;;;;;;;9.20;4.50;;;;;;;5.16;87.82;100942.91;4984717;28;20049;-75
2022/01/07 10:56:33;;;;;;;7.10;4.22;;;;;;;5.33;87.83;100939.41;4985797;28;20010;-76
2022/01/07 10:59:05;;;;;;;10.55;4.70;;;;;;;5.34;87.37;100933.94;4982509;28;20054;-75
2022/01/07 11:01:37;;;;;;;10.73;4.55;;;;;;;5.40;88.01;100929.16;4982469;28;20030;-77
2022/01/07 11:04:04;;;;;;;9.10;5.00;;;;;;;5.46;87.07;100932.47;4985421;28;20098;-76
2022/01/07 11:06:30;;;;;;;7.45;4.60;;;;;;;5.52;87.29;100926.75;4979699;28;20065;-76
2022/01/07 11:08:57;;;;;;;7.88;5.15;;;;;;;5.60;87.41;100927.25;4988228;28;20058;-76
2022/01/07 11:11:25;;;;;;;9.25;4.38;;;;;;;5.67;86.08;100925.09;4976527;28;20077;-74
2022/01/07 11:13:51;;;;;;;12.85;4.95;;;;;;;5.71;86.81;100934.78;4987030;28;20116;-76
2022/01/07 11:16:17;;;;;;;14.00;4.70;;;;;;;5.69;85.43;100928.59;4984449;28;20550;-76
2022/01/07 11:18:45;;;;;;;10.40;4.47;;;;;;;5.69;85.84;100933.09;4988246;28;20034;-75
2022/01/07 11:21:11;;;;;;;9.02;4.18;;;;;;;5.69;86.29;100938.50;4976953;28;20041;-75
2022/01/07 11:23:38;;;;;;;9.57;4.45;;;;;;;5.66;85.74;100931.44;4987143;28;20081;-74
2022/01/07 11:26:04;;;;;;;8.05;4.88;;;;;;;5.61;86.28;100939.78;4982258;28;20023;-77
2022/01/07 11:28:29;;;;;;;8.88;4.38;;;;;;;5.53;85.70;100933.88;4988333;28;20034;-75
2022/01/07 11:31:09;;;;;;;11.65;5.32;;;;;;;5.47;85.47;100931.50;4984542;28;20041;-76
2022/01/07 11:33:34;;;;;;;8.75;3.75;;;;;;;5.40;85.57;100932.75;4982737;28;20081;-73
2022/01/07 11:35:59;;;;;;;6.85;3.63;;;;;;;5.42;85.11;100936.25;4976687;28;20743;-75